Time;durP1;ratioP1;P1;durP2;ratioP2;P2;SDS_P1;SDS_P2;PMS_P1;PMS_P2;Temp;Humidity;BMP_temperature;BMP_pressure;BME280_temperature;BME280_humidity;BME280_pressure;Samples;Min_cycle;Max_cycle;Signal;HPM_P1;HPM_P2
2021/10/14 00:00:25;;;;;;;4.10;3.80;;;9.40;99.90;;;;;;10114321;29;20230;-83
2021/10/14 00:05:27;;;;;;;4.40;4.10;;;9.40;99.90;;;;;;10085613;29;20329;-83
2021/10/14 00:10:30;;;;;;;3.70;3.40;;;9.40;99.90;;;;;;10086430;29;20723;-83
2021/10/14 00:15:33;;;;;;;4.23;3.97;;;9.40;99.90;;;;;;10100596;29;20778;-82
2021/10/14 00:20:36;;;;;;;4.27;3.97;;;9.40;99.90;;;;;;10120167;29;20230;-83
2021/10/14 00:25:39;;;;;;;3.77;3.47;;;9.40;99.90;;;;;;10101284;29;20242;-83
2021/10/14 00:30:43;;;;;;;5.60;3.80;;;9.40;99.90;;;;;;10105733;29;20234;-83
2021/10/14 00:35:45;;;;;;;4.73;4.27;;;9.40;99.90;;;;;;10104653;29;20215;-83
2021/10/14 00:40:47;;;;;;;4.40;3.97;;;9.40;99.90;;;;;;10103140;29;20702;-83
2021/10/14 00:45:51;;;;;;;4.33;3.93;;;9.40;99.90;;;;;;10103918;29;20238;-82
2021/10/14 00:50:53;;;;;;;4.13;3.73;;;9.30;99.90;;;;;;10109573;29;20233;-82
2021/10/14 00:55:55;;;;;;;3.60;3.33;;;9.30;99.90;;;;;;10105525;29;20212;-83
2021/10/14 01:01:00;;;;;;;17.43;15.60;;;9.30;99.90;;;;;;10099976;29;20238;-83
2021/10/14 01:06:02;;;;;;;4.33;3.93;;;9.30;99.90;;;;;;10112198;29;20230;-83
2021/10/14 01:11:04;;;;;;;5.40;3.50;;;9.30;99.90;;;;;;10084319;29;20235;-83
2021/10/14 01:16:08;;;;;;;5.03;4.57;;;9.30;99.90;;;;;;10107480;29;20207;-82
2021/10/14 01:21:12;;;;;;;4.40;4.00;;;9.20;99.90;;;;;;10108790;29;20234;-83
2021/10/14 01:26:14;;;;;;;4.70;4.40;;;9.20;99.90;;;;;;10120859;29;20238;-82
2021/10/14 01:31:16;;;;;;;4.60;3.73;;;9.20;99.90;;;;;;10080011;29;20230;-83
2021/10/14 01:36:20;;;;;;;4.00;3.50;;;9.10;99.90;;;;;;10103746;29;20210;-82
2021/10/14 01:41:23;;;;;;;4.30;3.90;;;9.10;99.90;;;;;;10105436;29;20226;-82
2021/10/14 01:46:25;;;;;;;3.83;3.53;;;9.10;99.90;;;;;;10114134;29;20226;-82
2021/10/14 01:51:29;;;;;;;4.00;3.70;;;9.10;99.90;;;;;;10098769;29;20261;-82
2021/10/14 01:56:31;;;;;;;3.90;3.60;;;9.10;99.90;;;;;;10105739;29;20214;-83
2021/10/14 02:01:33;;;;;;;4.33;3.57;;;9.10;99.90;;;;;;10116899;29;20379;-83
2021/10/14 02:06:36;;;;;;;4.30;4.00;;;9.20;99.90;;;;;;10098454;29;20230;-83
2021/10/14 02:11:38;;;;;;;4.67;4.27;;;9.20;99.90;;;;;;10090439;29;20230;-82
2021/10/14 02:16:41;;;;;;;4.00;3.70;;;9.20;99.90;;;;;;10099906;29;20233;-83
2021/10/14 02:21:44;;;;;;;4.30;3.90;;;9.20;99.90;;;;;;10089186;29;20369;-83
2021/10/14 02:26:46;;;;;;;3.70;3.47;;;9.10;99.90;;;;;;10110335;29;20321;-82
2021/10/14 02:31:48;;;;;;;5.23;4.13;;;9.20;99.90;;;;;;10090116;29;20238;-83
2021/10/14 02:36:52;;;;;;;4.17;3.77;;;9.10;99.90;;;;;;10111065;29;20206;-83
2021/10/14 02:41:54;;;;;;;4.73;4.30;;;9.10;99.90;;;;;;10095024;29;20235;-83
2021/10/14 02:46:56;;;;;;;4.10;3.90;;;9.10;99.90;;;;;;10123929;29;20250;-83
2021/10/14 02:51:59;;;;;;;3.97;3.57;;;9.10;99.90;;;;;;10123817;29;20325;-83
2021/10/14 02:57:01;;;;;;;4.50;4.10;;;9.10;99.90;;;;;;10129475;29;20218;-83
2021/10/14 03:02:04;;;;;;;4.40;4.10;;;9.10;99.90;;;;;;10091393;29;20250;-83
2021/10/14 03:07:07;;;;;;;4.20;3.90;;;9.00;99.90;;;;;;10108509;29;20585;-83
2021/10/14 03:12:09;;;;;;;4.77;4.37;;;9.00;99.90;;;;;;10107037;29;20322;-83
2021/10/14 03:17:11;;;;;;;4.10;3.70;;;9.00;99.90;;;;;;10124007;29;20805;-83
2021/10/14 03:22:22;;;;;;;4.93;3.80;;;9.00;99.90;;;;;;10126011;29;20227;-82
2021/10/14 03:27:24;;;;;;;4.23;3.93;;;9.10;99.90;;;;;;10104250;29;20322;-83
2021/10/14 03:32:27;;;;;;;4.40;4.00;;;9.00;99.90;;;;;;10109713;29;20750;-83
2021/10/14 03:37:30;;;;;;;4.97;3.90;;;9.10;99.90;;;;;;10080299;29;20220;-82
2021/10/14 03:42:32;;;;;;;3.93;3.63;;;9.10;99.90;;;;;;10085286;29;20345;-83
2021/10/14 03:47:34;;;;;;;4.33;4.03;;;9.10;99.90;;;;;;10112105;29;20253;-82
2021/10/14 03:52:38;;;;;;;4.43;4.00;;;9.00;99.90;;;;;;10102224;29;20632;-82
2021/10/14 03:57:41;;;;;;;4.33;4.00;;;9.00;99.90;;;;;;10113702;29;20207;-82
2021/10/14 04:02:43;;;;;;;4.57;4.27;;;9.00;99.90;;;;;;10110604;29;20322;-83
2021/10/14 04:07:46;;;;;;;4.60;4.20;;;8.90;99.90;;;;;;10086728;29;20237;-82
2021/10/14 04:12:48;;;;;;;6.57;4.80;;;8.90;99.90;;;;;;10108282;29;20605;-82
2021/10/14 04:17:50;;;;;;;4.93;4.57;;;8.80;99.90;;;;;;10100422;29;20207;-82
2021/10/14 04:23:08;;;;;;;5.40;5.00;;;8.90;99.90;;;;;;10118079;29;20848;-83
2021/10/14 04:28:15;;;;;;;6.47;4.73;;;8.80;99.90;;;;;;10102792;29;20246;-82
2021/10/14 04:33:19;;;;;;;6.93;5.27;;;8.90;99.90;;;;;;10117805;29;20238;-83
2021/10/14 04:38:23;;;;;;;5.17;4.67;;;8.90;99.90;;;;;;10106379;29;20211;-82
2021/10/14 04:43:25;;;;;;;5.77;5.17;;;8.90;99.90;;;;;;10197230;23;20315;-82
2021/10/14 04:48:27;;;;;;;5.63;5.20;;;9.00;99.90;;;;;;10168370;29;20225;-83
2021/10/14 04:53:31;;;;;;;6.17;5.67;;;9.00;99.90;;;;;;10174120;29;20234;-82
2021/10/14 04:58:33;;;;;;;6.10;5.50;;;9.10;99.90;;;;;;10153125;29;20309;-83
2021/10/14 05:03:35;;;;;;;7.47;6.77;;;9.10;99.90;;;;;;10154817;29;20877;-82
2021/10/14 05:08:38;;;;;;;6.13;5.70;;;9.10;99.90;;;;;;10150927;29;20305;-82
2021/10/14 05:13:41;;;;;;;6.70;6.00;;;9.20;99.90;;;;;;10154463;29;20233;-82
2021/10/14 05:18:43;;;;;;;5.47;4.93;;;9.20;99.90;;;;;;10140392;29;20704;-83
2021/10/14 05:23:47;;;;;;;6.20;5.70;;;9.20;99.90;;;;;;10171588;29;20234;-81
2021/10/14 05:28:49;;;;;;;5.90;5.40;;;9.30;99.90;;;;;;10172366;29;20660;-82
2021/10/14 05:33:52;;;;;;;6.57;6.07;;;9.30;99.90;;;;;;10139239;29;20270;-82
2021/10/14 05:38:56;;;;;;;5.20;4.70;;;9.30;99.90;;;;;;10172131;29;20268;-82
2021/10/14 05:43:58;;;;;;;6.60;5.87;;;9.40;99.90;;;;;;10172690;29;20344;-81
2021/10/14 05:49:00;;;;;;;6.37;5.77;;;9.50;99.90;;;;;;10151739;29;20559;-84
2021/10/14 05:54:04;;;;;;;5.80;5.30;;;9.50;99.90;;;;;;10155352;29;20317;-82
2021/10/14 05:59:06;;;;;;;7.13;6.43;;;9.60;99.90;;;;;;10153748;29;20221;-82
2021/10/14 06:04:08;;;;;;;6.03;5.50;;;9.60;99.90;;;;;;10170514;29;20226;-82
2021/10/14 06:09:16;;;;;;;5.63;5.00;;;9.70;99.90;;;;;;10152586;29;20261;-82
2021/10/14 06:14:18;;;;;;;6.70;6.00;;;9.70;99.90;;;;;;10154099;29;20231;-83
2021/10/14 06:19:20;;;;;;;6.43;5.83;;;9.80;99.90;;;;;;10171084;29;20209;-82
2021/10/14 06:24:24;;;;;;;9.07;6.73;;;9.80;99.90;;;;;;10172164;29;20413;-82
2021/10/14 06:36:09;;;;;;;7.27;6.70;;;10.00;99.90;;;;;;10161868;29;20213;-82
2021/10/14 06:41:13;;;;;;;7.70;6.40;;;10.00;99.90;;;;;;10177286;29;20233;-83
2021/10/14 06:46:16;;;;;;;6.77;6.20;;;10.20;99.90;;;;;;10178049;29;20714;-82
2021/10/14 06:51:18;;;;;;;7.43;6.63;;;10.10;99.90;;;;;;10162222;29;20238;-82
2021/10/14 06:56:22;;;;;;;7.30;6.33;;;10.20;99.90;;;;;;10163470;29;20206;-82
2021/10/14 07:01:31;;;;;;;8.50;5.67;;;10.30;99.90;;;;;;10176838;29;20739;-82
2021/10/14 07:06:33;;;;;;;6.40;5.90;;;10.30;99.90;;;;;;10162760;29;20233;-82
2021/10/14 07:11:42;;;;;;;5.53;5.13;;;10.30;99.90;;;;;;10160552;29;20703;-82
2021/10/14 07:16:44;;;;;;;6.30;5.70;;;10.40;99.90;;;;;;10157904;29;20695;-82
2021/10/14 07:21:47;;;;;;;7.43;6.20;;;10.60;99.90;;;;;;10179301;29;20229;-83
2021/10/14 07:26:50;;;;;;;5.80;5.30;;;10.80;99.90;;;;;;10180587;29;20230;-82
2021/10/14 07:31:53;;;;;;;7.10;6.40;;;10.90;99.90;;;;;;10179671;29;20225;-82
2021/10/14 07:36:55;;;;;;;6.60;5.97;;;11.10;99.90;;;;;;10192960;29;20213;-83
2021/10/14 07:42:01;;;;;;;6.67;6.03;;;11.20;99.90;;;;;;10171657;29;20233;-83
2021/10/14 07:47:03;;;;;;;6.73;6.17;;;11.30;99.90;;;;;;10165876;29;20244;-83
2021/10/14 07:52:06;;;;;;;5.10;4.80;;;11.50;99.90;;;;;;10186770;29;20313;-83
2021/10/14 07:57:09;;;;;;;7.47;6.00;;;11.70;99.90;;;;;;10186997;29;20589;-83
2021/10/14 08:02:13;;;;;;;7.30;5.23;;;11.80;99.90;;;;;;10187539;29;20241;-83
2021/10/14 08:07:15;;;;;;;6.03;5.43;;;11.90;99.90;;;;;;10169303;29;20245;-83
2021/10/14 08:12:18;;;;;;;6.10;5.50;;;11.80;99.90;;;;;;10186792;29;20241;-83
2021/10/14 08:17:20;;;;;;;6.27;5.50;;;11.70;99.90;;;;;;10168492;29;20612;-83
2021/10/14 08:22:23;;;;;;;5.60;4.60;;;11.80;99.90;;;;;;10172543;29;20281;-83
2021/10/14 08:27:26;;;;;;;5.57;5.00;;;11.80;99.90;;;;;;10188333;29;20234;-83
2021/10/14 08:32:29;;;;;;;5.67;4.20;;;11.90;99.90;;;;;;10185789;29;20234;-83
2021/10/14 08:37:32;;;;;;;5.00;4.60;;;12.10;99.90;;;;;;10151105;29;20258;-83
2021/10/14 08:42:36;;;;;;;4.20;3.90;;;12.20;99.90;;;;;;10165977;29;20240;-83
2021/10/14 08:47:39;;;;;;;4.97;4.57;;;12.20;99.90;;;;;;10181766;29;20254;-83
2021/10/14 08:52:42;;;;;;;4.50;4.20;;;12.20;99.90;;;;;;10181834;29;20237;-83
2021/10/14 08:57:45;;;;;;;4.40;4.00;;;12.20;99.90;;;;;;10166883;29;20238;-83
2021/10/14 09:02:48;;;;;;;4.90;4.50;;;12.10;99.90;;;;;;10181878;29;20321;-83
2021/10/14 09:07:50;;;;;;;5.23;4.73;;;12.20;99.90;;;;;;10167050;29;20747;-83
2021/10/14 09:12:54;;;;;;;4.87;4.37;;;12.30;99.90;;;;;;10181318;29;20238;-83
2021/10/14 09:17:56;;;;;;;3.93;3.73;;;12.60;99.90;;;;;;10182903;29;20286;-83
2021/10/14 09:23:00;;;;;;;8.07;4.33;;;12.80;99.90;;;;;;10182430;29;20250;-83
2021/10/14 09:28:13;;;;;;;6.10;4.40;;;12.90;99.90;;;;;;10163936;29;20293;-83
2021/10/14 09:33:37;;;;;;;4.70;4.30;;;13.20;99.90;;;;;;10180047;29;20332;-83
2021/10/14 09:38:40;;;;;;;4.03;3.53;;;13.40;99.90;;;;;;10182948;29;20340;-83
2021/10/14 09:43:44;;;;;;;4.60;4.23;;;13.50;99.90;;;;;;10177052;29;20256;-83
2021/10/14 09:48:49;;;;;;;5.03;4.53;;;13.60;99.90;;;;;;10158476;29;20277;-83
2021/10/14 09:53:51;;;;;;;3.60;3.30;;;13.60;99.90;;;;;;10161124;29;20734;-82
2021/10/14 09:58:56;;;;;;;3.30;3.00;;;13.50;99.90;;;;;;10160982;29;20206;-83
2021/10/14 10:03:59;;;;;;;3.77;3.50;;;13.40;99.90;;;;;;10182124;29;20222;-83
2021/10/14 10:09:07;;;;;;;3.67;3.43;;;13.30;99.90;;;;;;10165494;29;20623;-83
2021/10/14 10:14:11;;;;;;;3.40;3.10;;;13.20;99.90;;;;;;10165926;29;20594;-83
2021/10/14 10:19:13;;;;;;;3.67;3.40;;;13.20;99.90;;;;;;10194606;29;20273;-83
2021/10/14 10:24:30;;;;;;;3.30;3.00;;;13.20;99.90;;;;;;10172551;29;20312;-83
2021/10/14 10:29:44;;;;;;;4.87;4.40;;;13.20;99.90;;;;;;10187768;29;20332;-83
2021/10/14 10:35:10;;;;;;;3.83;3.53;;;13.20;99.90;;;;;;10186682;29;20202;-83
2021/10/14 10:40:42;;;;;;;3.50;3.30;;;13.20;99.90;;;;;;10204305;23;20301;-83
2021/10/14 10:46:28;;;;;;;4.20;3.47;;;13.20;99.90;;;;;;10216607;29;20735;-82
2021/10/14 10:51:32;;;;;;;5.10;2.87;;;13.30;99.90;;;;;;10211756;28;20733;-83
2021/10/14 10:56:38;;;;;;;3.20;2.90;;;13.30;99.90;;;;;;10193630;29;20189;-83
2021/10/14 11:01:41;;;;;;;3.20;3.03;;;13.40;99.90;;;;;;10211011;29;20222;-83
2021/10/14 11:06:53;;;;;;;4.47;3.10;;;13.60;99.90;;;;;;10192444;29;20232;-83
2021/10/14 11:12:04;;;;;;;4.47;3.70;;;13.70;99.90;;;;;;10174894;29;20236;-83
2021/10/14 11:17:13;;;;;;;2.60;2.50;;;13.80;99.90;;;;;;10205785;29;20202;-83
2021/10/14 11:22:16;;;;;;;3.37;3.10;;;13.90;99.90;;;;;;10207144;29;20229;-83
2021/10/14 11:27:22;;;;;;;3.47;3.20;;;13.90;99.90;;;;;;10192798;29;20268;-83
2021/10/14 11:32:33;;;;;;;3.90;3.40;;;13.90;99.90;;;;;;10214398;29;20229;-83
2021/10/14 11:37:36;;;;;;;3.43;3.20;;;14.00;99.90;;;;;;10194882;29;20283;-83
2021/10/14 11:42:38;;;;;;;5.40;4.90;;;14.20;99.90;;;;;;10188154;29;20228;-82
2021/10/14 11:47:42;;;;;;;3.90;3.50;;;14.30;99.90;;;;;;10200369;29;20264;-82
2021/10/14 11:52:44;;;;;;;4.43;4.03;;;14.30;99.90;;;;;;10176261;29;20725;-83
2021/10/14 11:57:47;;;;;;;4.80;4.50;;;14.50;99.90;;;;;;10189392;29;20714;-82
2021/10/14 12:02:51;;;;;;;4.40;4.00;;;14.70;99.90;;;;;;10197458;29;20284;-82
2021/10/14 12:07:56;;;;;;;4.70;4.17;;;14.90;99.90;;;;;;10181368;29;20226;-82
2021/10/14 12:13:03;;;;;;;4.50;4.20;;;15.10;99.90;;;;;;10174100;29;20229;-83
2021/10/14 12:18:06;;;;;;;4.07;3.70;;;15.20;99.90;;;;;;10157754;29;20582;-83
2021/10/14 12:23:08;;;;;;;3.83;3.53;;;15.30;99.90;;;;;;10194536;29;20248;-83
2021/10/14 12:28:23;;;;;;;4.73;4.33;;;15.40;99.90;;;;;;10193560;29;20229;-83
2021/10/14 12:33:26;;;;;;;5.17;3.93;;;15.50;99.90;;;;;;10176619;29;20327;-82
2021/10/14 12:38:35;;;;;;;3.17;2.77;;;15.50;99.90;;;;;;10179688;29;20662;-83
2021/10/14 12:43:45;;;;;;;3.33;3.03;;;15.50;99.90;;;;;;10177034;29;20772;-83
2021/10/14 12:48:53;;;;;;;3.60;3.30;;;15.50;99.90;;;;;;10172972;29;20826;-83
2021/10/14 12:53:57;;;;;;;4.33;3.93;;;15.60;99.90;;;;;;10176277;29;20579;-83
2021/10/14 12:59:03;;;;;;;3.73;3.43;;;15.60;99.90;;;;;;10185180;29;20237;-83
2021/10/14 13:04:07;;;;;;;2.53;2.43;;;15.70;99.90;;;;;;10190030;29;20919;-83
2021/10/14 13:09:09;;;;;;;3.97;3.60;;;15.60;99.90;;;;;;10196499;29;20243;-83
2021/10/14 13:14:13;;;;;;;4.73;4.33;;;15.70;99.90;;;;;;10162858;29;20233;-82
2021/10/14 13:19:17;;;;;;;4.00;3.60;;;15.70;99.90;;;;;;10175116;29;20213;-82
2021/10/14 13:24:20;;;;;;;4.30;3.90;;;15.70;99.90;;;;;;10159681;29;20226;-82
2021/10/14 13:29:22;;;;;;;3.73;3.30;;;15.70;99.90;;;;;;10159767;29;20701;-83
2021/10/14 13:34:26;;;;;;;3.87;3.10;;;15.70;99.90;;;;;;10173442;29;20229;-83
2021/10/14 13:39:28;;;;;;;6.93;3.20;;;15.70;99.90;;;;;;10158292;29;20272;-83
2021/10/14 13:50:51;;;;;;;4.20;3.70;;;15.60;99.90;;;;;;10064140;29;20226;-82
2021/10/14 13:55:54;;;;;;;10.07;4.13;;;15.50;99.90;;;;;;10168754;29;20505;-83
2021/10/14 14:00:57;;;;;;;3.83;3.53;;;15.40;99.90;;;;;;10175817;29;20319;-83
2021/10/14 14:06:02;;;;;;;4.20;3.47;;;15.20;99.90;;;;;;10171027;29;20280;-83
2021/10/14 14:11:04;;;;;;;3.83;3.47;;;15.10;99.90;;;;;;10175914;29;20271;-82
2021/10/14 14:16:06;;;;;;;5.03;3.30;;;15.00;99.90;;;;;;10177169;29;20681;-82
2021/10/14 14:21:12;;;;;;;3.73;3.40;;;14.90;99.90;;;;;;10175862;29;20705;-83
2021/10/14 14:26:15;;;;;;;4.03;3.20;;;14.80;99.90;;;;;;10158389;29;20320;-82
2021/10/14 14:31:20;;;;;;;4.23;3.80;;;14.80;99.90;;;;;;10165340;29;20237;-82
2021/10/14 14:36:28;;;;;;;4.93;4.20;;;14.70;99.90;;;;;;10174570;29;20209;-83
2021/10/14 14:41:30;;;;;;;4.23;3.70;;;14.70;99.90;;;;;;10173980;29;20264;-82
2021/10/14 14:46:34;;;;;;;5.37;3.93;;;14.60;99.90;;;;;;10177341;29;20285;-82
2021/10/14 14:51:37;;;;;;;4.30;3.70;;;14.60;99.90;;;;;;10186329;29;20243;-82
2021/10/14 14:56:39;;;;;;;5.03;4.60;;;14.50;99.90;;;;;;10192103;29;20215;-83
2021/10/14 15:01:42;;;;;;;7.23;6.33;;;14.50;99.90;;;;;;10162749;29;20243;-83
2021/10/14 15:06:45;;;;;;;4.90;4.40;;;14.50;99.90;;;;;;10196450;29;20376;-83
2021/10/14 15:11:48;;;;;;;3.83;3.53;;;14.50;99.90;;;;;;10197097;29;20229;-82
2021/10/14 15:16:50;;;;;;;4.43;4.00;;;14.50;99.90;;;;;;10161351;29;20654;-82
2021/10/14 15:21:53;;;;;;;3.80;3.50;;;14.40;99.90;;;;;;10178830;29;20337;-83
2021/10/14 15:26:55;;;;;;;4.23;3.87;;;14.40;99.90;;;;;;10177331;29;20315;-83
2021/10/14 15:31:57;;;;;;;4.10;3.70;;;14.30;99.90;;;;;;10161753;29;20233;-83
2021/10/14 15:37:01;;;;;;;6.20;3.50;;;14.30;99.90;;;;;;10178753;29;20206;-83
2021/10/14 15:42:03;;;;;;;5.47;4.47;;;14.20;99.90;;;;;;10178654;29;20307;-82
2021/10/14 15:47:05;;;;;;;4.97;3.70;;;14.10;99.90;;;;;;10178204;29;20236;-82
2021/10/14 15:52:09;;;;;;;3.90;3.60;;;14.10;99.90;;;;;;10185203;29;20724;-82
2021/10/14 15:57:12;;;;;;;3.57;3.37;;;14.10;99.90;;;;;;10173863;29;20296;-82
2021/10/14 16:02:14;;;;;;;3.50;3.20;;;14.00;99.90;;;;;;10180727;29;20233;-81
2021/10/14 16:07:17;;;;;;;6.60;3.33;;;13.90;99.90;;;;;;10179971;29;20620;-82
2021/10/14 16:12:19;;;;;;;5.73;3.97;;;13.80;99.90;;;;;;10173157;29;20233;-81
2021/10/14 16:17:21;;;;;;;3.40;3.10;;;13.70;99.90;;;;;;10194082;29;20216;-81
2021/10/14 16:22:25;;;;;;;3.90;3.60;;;13.60;99.90;;;;;;10192706;29;20229;-81
2021/10/14 16:27:27;;;;;;;11.43;6.10;;;13.50;99.90;;;;;;10196602;29;20241;-81
2021/10/14 16:32:35;;;;;;;3.80;3.50;;;13.40;99.90;;;;;;10172766;29;20240;-81
2021/10/14 16:37:39;;;;;;;4.27;3.97;;;13.30;99.90;;;;;;10175521;29;20284;-81
2021/10/14 16:42:43;;;;;;;4.37;3.97;;;13.20;99.90;;;;;;10194151;29;20249;-81
2021/10/14 16:47:46;;;;;;;4.60;3.97;;;13.10;99.90;;;;;;10191678;29;20233;-81
2021/10/14 16:52:50;;;;;;;5.40;3.90;;;13.10;99.90;;;;;;10175876;29;20229;-81
2021/10/14 16:57:52;;;;;;;5.00;4.30;;;13.00;99.90;;;;;;10163483;29;20241;-81
2021/10/14 17:02:54;;;;;;;4.33;3.93;;;12.90;99.90;;;;;;10169199;29;20232;-81
2021/10/14 17:08:00;;;;;;;6.00;4.03;;;12.90;99.90;;;;;;10198131;29;20322;-81
2021/10/14 17:13:02;;;;;;;5.93;5.30;;;12.80;99.90;;;;;;10194819;29;20280;-81
2021/10/14 17:18:08;;;;;;;5.93;5.43;;;12.80;99.90;;;;;;10173019;29;20216;-81
2021/10/14 17:23:24;;;;;;;7.50;6.90;;;12.70;99.90;;;;;;10182873;29;20229;-82
2021/10/14 17:39:08;;;;;;;6.47;5.97;;;12.50;99.90;;;;;;10168139;29;20192;-82
2021/10/14 17:44:10;;;;;;;6.83;5.77;;;12.50;99.90;;;;;;10174347;29;20236;-82
2021/10/14 17:49:12;;;;;;;6.53;5.93;;;12.30;99.90;;;;;;10194059;29;20244;-82
2021/10/14 17:54:16;;;;;;;6.90;6.30;;;12.20;99.90;;;;;;10188686;29;20233;-82
2021/10/14 17:59:18;;;;;;;6.83;6.17;;;12.20;99.90;;;;;;10181121;29;20653;-82
2021/10/14 18:04:25;;;;;;;6.10;4.60;;;12.20;99.90;;;;;;10181989;29;20241;-82
2021/10/14 18:41:39;;;;;;;5.40;4.57;;;11.90;99.90;;;;;;10194056;29;20236;-82
2021/10/14 18:46:43;;;;;;;10.10;5.30;;;11.80;99.90;;;;;;10171736;29;20230;-82
2021/10/14 18:51:47;;;;;;;8.03;5.60;;;11.80;99.90;;;;;;10169564;29;20614;-82
2021/10/14 18:56:51;;;;;;;6.00;5.40;;;11.80;99.90;;;;;;10197591;29;20269;-82
2021/10/14 19:01:54;;;;;;;6.70;5.43;;;11.80;99.90;;;;;;10172099;29;20237;-82
2021/10/14 19:06:58;;;;;;;6.83;5.63;;;11.80;99.90;;;;;;10167880;29;20267;-82
2021/10/14 19:17:48;;;;;;;5.93;5.40;;;11.70;99.90;;;;;;10089180;29;20550;-82
2021/10/14 20:21:38;;;;;;;6.13;5.10;;;11.40;99.90;;;;;;10180131;29;20268;-82
2021/10/14 20:26:40;;;;;;;7.37;5.13;;;11.30;99.90;;;;;;10161577;29;20627;-82
2021/10/14 20:31:47;;;;;;;5.27;4.87;;;11.30;99.90;;;;;;10182855;29;20590;-82
2021/10/14 20:36:49;;;;;;;6.20;5.70;;;11.30;99.90;;;;;;10193490;29;20216;-82
2021/10/14 20:41:51;;;;;;;7.37;6.03;;;11.30;99.90;;;;;;10157857;29;20245;-82
2021/10/14 20:46:55;;;;;;;7.57;6.80;;;11.30;99.90;;;;;;10158876;29;20869;-82
2021/10/14 20:52:03;;;;;;;7.67;6.90;;;11.30;99.90;;;;;;10185865;29;20246;-82
2021/10/14 21:01:48;;;;;;;6.50;5.90;;;11.30;99.90;;;;;;10177144;29;20205;-82
2021/10/14 21:02:45;;;;;;;6.50;5.90;;;11.20;99.90;;;;;;10179221;29;21946;-82
2021/10/14 21:07:47;;;;;;;6.80;6.20;;;11.20;99.90;;;;;;10182204;29;20704;-82
2021/10/14 21:12:49;;;;;;;6.07;5.67;;;11.10;99.90;;;;;;10180313;29;20237;-82
2021/10/14 21:17:53;;;;;;;7.50;6.60;;;11.10;99.90;;;;;;10176364;29;20232;-82
2021/10/14 21:22:55;;;;;;;7.60;6.63;;;11.00;99.90;;;;;;10172107;29;20613;-82
2021/10/14 21:28:10;;;;;;;7.70;6.90;;;11.00;99.90;;;;;;10172871;29;20226;-82
2021/10/14 21:38:35;;;;;;;6.53;5.93;;;10.90;99.90;;;;;;10183075;29;20201;-82
2021/10/14 21:43:37;;;;;;;7.33;6.73;;;10.90;99.90;;;;;;10183185;29;21115;-82
2021/10/14 21:48:40;;;;;;;6.50;6.00;;;10.90;99.90;;;;;;10192103;29;20241;-83
2021/10/14 21:53:42;;;;;;;7.77;7.07;;;10.90;99.90;;;;;;10201785;29;20281;-82
2021/10/14 21:58:48;;;;;;;9.80;7.00;;;10.80;99.90;;;;;;10193768;29;20205;-82
2021/10/14 22:03:51;;;;;;;6.93;6.33;;;10.80;99.90;;;;;;10207812;23;20244;-83
2021/10/14 22:08:53;;;;;;;7.33;6.63;;;10.80;99.90;;;;;;10193870;29;20243;-83
2021/10/14 22:13:56;;;;;;;6.53;6.03;;;10.70;99.90;;;;;;10195788;29;20717;-83
2021/10/14 22:19:00;;;;;;;7.07;6.37;;;10.70;99.90;;;;;;10184139;29;20616;-83
2021/10/14 22:24:02;;;;;;;6.47;5.97;;;10.70;99.90;;;;;;10176515;29;20727;-83
2021/10/14 22:29:06;;;;;;;7.13;6.50;;;10.70;99.90;;;;;;10187371;29;20229;-82
2021/10/14 22:34:10;;;;;;;6.70;6.20;;;10.60;99.90;;;;;;10186058;29;21258;-82
2021/10/14 22:39:12;;;;;;;7.23;6.63;;;10.60;99.90;;;;;;10185599;29;20225;-82
2021/10/14 22:44:15;;;;;;;9.93;7.17;;;10.60;99.90;;;;;;10199689;29;20244;-82
2021/10/14 22:49:18;;;;;;;8.37;7.67;;;10.60;99.90;;;;;;10198938;29;20225;-82
2021/10/14 22:54:20;;;;;;;8.13;6.23;;;10.50;99.90;;;;;;10199577;29;20244;-83
2021/10/14 22:59:22;;;;;;;8.07;6.60;;;10.50;99.90;;;;;;10194023;29;20208;-83
2021/10/14 23:04:26;;;;;;;7.57;6.87;;;10.50;99.90;;;;;;10201377;29;20233;-82
2021/10/14 23:09:28;;;;;;;6.47;5.97;;;10.40;99.90;;;;;;10213023;29;20315;-82
2021/10/14 23:14:30;;;;;;;8.80;6.97;;;10.40;99.90;;;;;;10183181;29;20343;-83
2021/10/14 23:19:34;;;;;;;8.40;7.60;;;10.40;99.90;;;;;;10204429;29;20215;-82
2021/10/14 23:24:37;;;;;;;6.67;6.17;;;10.40;99.90;;;;;;10184391;29;20240;-82
2021/10/14 23:29:39;;;;;;;7.10;6.50;;;10.40;99.90;;;;;;10201200;29;20312;-82
2021/10/14 23:34:43;;;;;;;9.70;7.67;;;10.30;99.90;;;;;;10170720;29;20229;-82
2021/10/14 23:39:46;;;;;;;7.83;7.10;;;10.30;99.90;;;;;;10200289;29;20681;-82
2021/10/14 23:44:48;;;;;;;7.03;6.33;;;10.30;99.90;;;;;;10184822;29;20612;-82
2021/10/14 23:49:51;;;;;;;7.47;6.77;;;10.20;99.90;;;;;;10165767;29;20244;-82
2021/10/14 23:54:53;;;;;;;6.60;6.00;;;10.20;99.90;;;;;;10199044;29;20512;-82
2021/10/14 23:59:55;;;;;;;6.93;6.00;;;10.20;99.90;;;;;;10184888;29;20665;-82
